createdAt,value
2018-03-07T00:00:04.961Z,10.97
2018-03-07T00:00:31.056Z,10.99
2018-03-07T00:00:57.154Z,10.99
2018-03-07T00:01:23.259Z,11.02
2018-03-07T00:01:49.358Z,10.9
2018-03-07T00:02:15.463Z,10.93
2018-03-07T00:02:41.581Z,11.04
2018-03-07T00:03:07.677Z,10.92
2018-03-07T00:03:33.783Z,10.86
2018-03-07T00:03:59.881Z,10.99
2018-03-07T00:04:25.987Z,11.02
2018-03-07T00:04:52.082Z,10.99
2018-03-07T00:05:18.184Z,11.04
2018-03-07T00:05:44.281Z,11
2018-03-07T00:06:10.388Z,11.02
2018-03-07T00:06:36.486Z,10.87
2018-03-07T00:07:02.578Z,10.96
2018-03-07T00:07:28.685Z,11.02
2018-03-07T00:07:54.780Z,10.97
2018-03-07T00:08:20.882Z,10.96
2018-03-07T00:08:46.989Z,11.02
2018-03-07T00:09:13.083Z,11
2018-03-07T00:09:39.182Z,10.99
2018-03-07T00:10:05.285Z,11.05
2018-03-07T00:10:31.383Z,11.07
2018-03-07T00:10:57.488Z,11.02
2018-03-07T00:11:23.596Z,10.97
2018-03-07T00:11:49.712Z,11.07
2018-03-07T00:12:15.813Z,11.05
2018-03-07T00:12:41.914Z,11.14
2018-03-07T00:13:08.017Z,11.12
2018-03-07T00:13:34.133Z,11.12
2018-03-07T00:14:00.235Z,11.02
2018-03-07T00:14:26.332Z,11.07
2018-03-07T00:14:52.456Z,11.1
2018-03-07T00:15:18.568Z,10.99
2018-03-07T00:15:44.673Z,11.11
2018-03-07T00:16:10.796Z,11.12
2018-03-07T00:16:36.899Z,11.17
2018-03-07T00:17:03.005Z,11.08
2018-03-07T00:17:29.101Z,11.11
2018-03-07T00:17:55.207Z,11.05
2018-03-07T00:18:21.312Z,11.12
2018-03-07T00:18:47.410Z,11.17
2018-03-07T00:19:13.519Z,11.14
2018-03-07T00:19:39.630Z,11.12
2018-03-07T00:20:05.739Z,11.15
2018-03-07T00:20:31.852Z,11.14
2018-03-07T00:20:57.950Z,11.1
2018-03-07T00:21:24.059Z,11.14
2018-03-07T00:21:50.158Z,11.23
2018-03-07T00:22:16.258Z,11.12
2018-03-07T00:22:42.373Z,11.14
2018-03-07T00:23:08.478Z,11.12
2018-03-07T00:23:34.586Z,11.19
2018-03-07T00:24:00.697Z,11.19
2018-03-07T00:24:26.808Z,11.23
2018-03-07T00:24:52.899Z,11.19
2018-03-07T00:25:19.000Z,11.27
2018-03-07T00:25:45.122Z,11.25
2018-03-07T00:26:11.258Z,11.27
2018-03-07T00:26:37.366Z,11.27
2018-03-07T00:27:03.462Z,11.27
2018-03-07T00:27:29.566Z,11.27
2018-03-07T00:27:55.668Z,11.23
2018-03-07T00:28:21.771Z,11.29
2018-03-07T00:28:47.872Z,11.25
2018-03-07T00:29:13.975Z,11.19
2018-03-07T00:29:40.075Z,11.29
2018-03-07T00:30:06.183Z,11.27
2018-03-07T00:30:32.288Z,11.22
2018-03-07T00:30:58.388Z,11.29
2018-03-07T00:31:24.502Z,11.22
2018-03-07T00:31:50.607Z,11.25
2018-03-07T00:32:16.709Z,11.25
2018-03-07T00:32:42.822Z,11.23
2018-03-07T00:33:08.928Z,11.29
2018-03-07T00:33:35.031Z,11.26
2018-03-07T00:34:01.135Z,11.25
2018-03-07T00:34:27.239Z,11.23
2018-03-07T00:34:53.360Z,11.3
2018-03-07T00:35:19.459Z,11.3
2018-03-07T00:35:45.563Z,11.33
2018-03-07T00:36:11.668Z,11.4
2018-03-07T00:36:37.774Z,11.36
2018-03-07T00:37:03.885Z,11.41
2018-03-07T00:37:29.987Z,11.4
2018-03-07T00:37:56.080Z,11.32
2018-03-07T00:38:22.180Z,11.35
2018-03-07T00:38:48.287Z,11.32
2018-03-07T00:39:14.384Z,11.32
2018-03-07T00:39:40.489Z,11.35
2018-03-07T00:40:06.589Z,11.32
2018-03-07T00:40:32.702Z,11.32
2018-03-07T00:40:58.795Z,11.3
2018-03-07T00:41:24.901Z,11.29
2018-03-07T00:41:51.000Z,11.4
2018-03-07T00:42:17.099Z,11.35
2018-03-07T00:42:43.198Z,11.33
2018-03-07T00:43:09.296Z,11.32
2018-03-07T00:43:35.392Z,11.29
2018-03-07T00:44:01.500Z,11.26
2018-03-07T00:44:27.600Z,11.32
2018-03-07T00:44:53.702Z,11.32
2018-03-07T00:45:19.799Z,11.29
2018-03-07T00:45:45.901Z,11.26
2018-03-07T00:46:12.005Z,11.27
2018-03-07T00:46:38.126Z,11.3
2018-03-07T00:47:04.230Z,11.27
2018-03-07T00:47:30.325Z,11.32
2018-03-07T00:47:56.420Z,11.32
2018-03-07T00:48:22.523Z,11.32
2018-03-07T00:48:48.619Z,11.29
2018-03-07T00:49:14.723Z,11.32
2018-03-07T00:49:40.839Z,11.32
2018-03-07T00:50:06.947Z,11.32
2018-03-07T00:50:33.049Z,11.26
2018-03-07T00:50:59.143Z,11.36
2018-03-07T00:51:25.243Z,11.4
2018-03-07T00:51:51.348Z,11.36
2018-03-07T00:52:17.444Z,11.33
2018-03-07T00:52:43.548Z,11.43
2018-03-07T00:53:09.651Z,11.41
2018-03-07T00:53:35.748Z,11.4
2018-03-07T00:54:01.855Z,11.4
2018-03-07T00:54:27.951Z,11.37
2018-03-07T00:54:54.055Z,11.33
2018-03-07T00:55:20.168Z,11.41
2018-03-07T00:55:46.287Z,11.3
2018-03-07T00:56:12.391Z,11.3
2018-03-07T00:56:38.489Z,11.32
2018-03-07T00:57:04.600Z,11.26
2018-03-07T00:57:30.702Z,11.33
2018-03-07T00:57:56.806Z,11.25
2018-03-07T00:58:22.910Z,11.4
2018-03-07T00:58:49.026Z,11.4
2018-03-07T00:59:15.132Z,11.33
2018-03-07T00:59:41.244Z,11.26
2018-03-07T01:00:07.331Z,11.26
2018-03-07T01:00:33.436Z,11.26
2018-03-07T01:00:59.532Z,11.25
2018-03-07T01:01:25.637Z,11.32
2018-03-07T01:01:51.741Z,11.3
2018-03-07T01:02:17.837Z,11.26
2018-03-07T01:02:43.956Z,11.29
2018-03-07T01:03:10.062Z,11.32
2018-03-07T01:03:36.159Z,11.32
2018-03-07T01:04:02.267Z,11.32
2018-03-07T01:04:28.361Z,11.3
2018-03-07T01:04:54.468Z,11.25
2018-03-07T01:05:20.567Z,11.25
2018-03-07T01:05:46.676Z,11.27
2018-03-07T01:06:12.781Z,11.29
2018-03-07T01:06:38.880Z,11.19
2018-03-07T01:07:04.980Z,11.29
2018-03-07T01:07:31.079Z,11.23
2018-03-07T01:07:57.182Z,11.23
2018-03-07T01:08:23.280Z,11.29
2018-03-07T01:08:49.380Z,11.27
2018-03-07T01:09:15.480Z,11.26
2018-03-07T01:09:41.587Z,11.25
2018-03-07T01:10:07.684Z,11.22
2018-03-07T01:10:33.789Z,11.27
2018-03-07T01:10:59.889Z,11.25
2018-03-07T01:11:25.987Z,11.17
2018-03-07T01:11:52.097Z,11.26
2018-03-07T01:12:18.194Z,11.26
2018-03-07T01:12:44.295Z,11.22
2018-03-07T01:13:10.402Z,11.19
2018-03-07T01:13:36.499Z,11.25
2018-03-07T01:14:02.615Z,11.18
2018-03-07T01:14:28.720Z,11.11
2018-03-07T01:14:54.818Z,11.02
2018-03-07T01:15:20.926Z,11.02
2018-03-07T01:15:47.029Z,11.04
2018-03-07T01:16:13.128Z,11.12
2018-03-07T01:16:39.225Z,11.04
2018-03-07T01:17:05.328Z,11.08
2018-03-07T01:17:31.435Z,11.07
2018-03-07T01:17:57.530Z,11.04
2018-03-07T01:18:23.634Z,11.02
2018-03-07T01:18:49.732Z,11.04
2018-03-07T01:19:15.839Z,10.99
2018-03-07T01:19:41.941Z,11
2018-03-07T01:20:08.079Z,11.02
2018-03-07T01:20:34.176Z,10.96
2018-03-07T01:21:00.284Z,10.97
2018-03-07T01:21:26.381Z,10.96
2018-03-07T01:21:52.504Z,10.97
2018-03-07T01:22:18.603Z,10.99
2018-03-07T01:22:44.701Z,10.96
2018-03-07T01:23:10.807Z,11
2018-03-07T01:23:36.938Z,10.99
2018-03-07T01:24:03.041Z,10.97
2018-03-07T01:24:29.152Z,10.99
2018-03-07T01:24:55.252Z,11.02
2018-03-07T01:25:21.348Z,11
2018-03-07T01:25:47.455Z,10.97
2018-03-07T01:26:13.549Z,10.93
2018-03-07T01:26:39.652Z,11.02
2018-03-07T01:27:05.765Z,10.87
2018-03-07T01:27:31.870Z,10.97
2018-03-07T01:27:57.994Z,10.94
2018-03-07T01:28:24.091Z,10.99
2018-03-07T01:28:50.195Z,10.93
2018-03-07T01:29:16.300Z,10.96
2018-03-07T01:29:42.437Z,10.89
2018-03-07T01:30:08.535Z,10.87
2018-03-07T01:30:34.667Z,10.93
2018-03-07T01:31:00.768Z,10.89
2018-03-07T01:31:26.870Z,10.87
2018-03-07T01:31:52.962Z,10.87
2018-03-07T01:32:19.067Z,10.9
2018-03-07T01:32:45.164Z,10.87
2018-03-07T01:33:11.270Z,10.94
2018-03-07T01:33:37.370Z,10.84
2018-03-07T01:34:03.473Z,10.93
2018-03-07T01:34:29.572Z,10.94
2018-03-07T01:34:55.680Z,10.97
2018-03-07T01:35:21.778Z,10.9
2018-03-07T01:35:47.876Z,10.96
2018-03-07T01:36:13.983Z,10.96
2018-03-07T01:36:40.080Z,10.9
2018-03-07T01:37:06.181Z,10.93
2018-03-07T01:37:32.303Z,10.99
2018-03-07T01:37:58.404Z,10.96
2018-03-07T01:38:24.505Z,11
2018-03-07T01:38:50.611Z,10.99
2018-03-07T01:39:16.730Z,10.99
2018-03-07T01:39:42.825Z,10.96
2018-03-07T01:40:08.939Z,10.96
2018-03-07T01:40:35.052Z,11.02
2018-03-07T01:41:01.168Z,10.92
2018-03-07T01:41:27.282Z,11.02
2018-03-07T01:41:53.379Z,10.97
2018-03-07T01:42:23.182Z,11
2018-03-07T01:42:49.413Z,11
2018-03-07T01:43:15.548Z,10.92
2018-03-07T01:43:41.697Z,11.04
2018-03-07T01:44:07.831Z,11.04
2018-03-07T01:44:33.961Z,10.97
2018-03-07T01:45:00.101Z,11
2018-03-07T01:45:26.232Z,11
2018-03-07T01:45:52.376Z,11
2018-03-07T01:46:18.530Z,10.99
2018-03-07T01:46:44.660Z,11.04
2018-03-07T01:47:10.804Z,11
2018-03-07T01:47:36.931Z,11.05
2018-03-07T01:48:03.120Z,10.96
2018-03-07T01:48:29.240Z,10.97
2018-03-07T01:48:55.372Z,11.02
2018-03-07T01:49:21.532Z,10.99
2018-03-07T01:49:47.667Z,10.99
2018-03-07T01:50:13.822Z,10.97
2018-03-07T01:50:39.958Z,11.05
2018-03-07T01:51:06.095Z,10.9
2018-03-07T01:51:32.226Z,10.97
2018-03-07T01:51:58.368Z,10.9
2018-03-07T01:52:24.501Z,11
2018-03-07T01:52:50.639Z,10.93
2018-03-07T01:53:16.773Z,10.97
2018-03-07T01:53:42.901Z,10.92
2018-03-07T01:54:09.039Z,10.9
2018-03-07T01:54:35.174Z,10.94
2018-03-07T01:55:01.308Z,10.93
2018-03-07T01:55:27.440Z,11
2018-03-07T01:55:53.576Z,10.97
2018-03-07T01:56:19.707Z,10.94
2018-03-07T01:56:45.848Z,10.97
2018-03-07T01:57:11.980Z,11.08
2018-03-07T01:57:38.122Z,11
2018-03-07T01:58:04.254Z,10.92
2018-03-07T01:58:30.382Z,11.02
2018-03-07T01:58:56.521Z,11
2018-03-07T01:59:22.653Z,11.02
2018-03-07T01:59:48.791Z,11.04
2018-03-07T02:00:14.926Z,11.02
2018-03-07T02:00:41.057Z,11.05
2018-03-07T02:01:07.189Z,11.1
2018-03-07T02:01:33.348Z,11.12
2018-03-07T02:01:59.503Z,11.11
2018-03-07T02:02:25.632Z,11.11
2018-03-07T02:02:51.795Z,11.14
2018-03-07T02:03:17.924Z,11.14
2018-03-07T02:03:44.062Z,11.23
2018-03-07T02:04:10.193Z,11.22
2018-03-07T02:04:36.328Z,11.23
2018-03-07T02:05:02.467Z,11.19
2018-03-07T02:05:28.621Z,11.18
2018-03-07T02:05:54.771Z,11.15
2018-03-07T02:06:20.933Z,11.14
2018-03-07T02:06:47.063Z,11.11
2018-03-07T02:07:13.202Z,11.1
2018-03-07T02:07:39.335Z,11.1
2018-03-07T02:08:05.517Z,11.14
2018-03-07T02:08:31.601Z,11.15
2018-03-07T02:08:57.739Z,11.23
2018-03-07T02:09:23.869Z,11.19
2018-03-07T02:09:50.005Z,11.18
2018-03-07T02:10:16.142Z,11.12
2018-03-07T02:10:42.273Z,11.1
2018-03-07T02:11:08.413Z,11.08
2018-03-07T02:11:34.547Z,11.15
2018-03-07T02:12:00.710Z,11.12
2018-03-07T02:12:26.861Z,11.08
2018-03-07T02:12:52.993Z,11.11
2018-03-07T02:13:19.125Z,11.1
2018-03-07T02:13:45.264Z,11.04
2018-03-07T02:14:11.403Z,11.04
2018-03-07T02:14:37.562Z,11.05
2018-03-07T02:15:03.699Z,11.11
2018-03-07T02:15:29.854Z,11.02
2018-03-07T02:15:56.022Z,10.97
2018-03-07T02:16:22.156Z,11.08
2018-03-07T02:16:48.285Z,11.1
2018-03-07T02:17:14.425Z,11.04
2018-03-07T02:17:40.555Z,11.07
2018-03-07T02:18:06.693Z,11.04
2018-03-07T02:18:32.822Z,11.08
2018-03-07T02:18:58.982Z,11.07
2018-03-07T02:19:25.111Z,11.04
2018-03-07T02:19:51.246Z,10.94
2018-03-07T02:20:17.383Z,11.04
2018-03-07T02:20:43.514Z,11
2018-03-07T02:21:09.652Z,11.07
2018-03-07T02:21:35.783Z,11.08
2018-03-07T02:22:01.917Z,10.96
2018-03-07T02:22:28.074Z,11.08
2018-03-07T02:22:54.231Z,10.99
2018-03-07T02:23:20.367Z,10.96
2018-03-07T02:23:46.501Z,11
2018-03-07T02:24:12.638Z,10.96
2018-03-07T02:24:38.769Z,11.08
2018-03-07T02:25:04.908Z,10.96
2018-03-07T02:25:31.045Z,11.05
2018-03-07T02:25:57.176Z,11.07
2018-03-07T02:26:23.317Z,11.07
2018-03-07T02:26:49.445Z,11.04
2018-03-07T02:27:15.581Z,11.08
2018-03-07T02:27:41.738Z,11.11
2018-03-07T02:28:07.878Z,11.11
2018-03-07T02:28:34.009Z,11.08
2018-03-07T02:29:00.140Z,11.04
2018-03-07T02:29:26.275Z,11
2018-03-07T02:29:52.409Z,11.08
2018-03-07T02:30:18.547Z,11.14
2018-03-07T02:30:44.683Z,11.14
2018-03-07T02:31:10.820Z,10.99
2018-03-07T02:31:36.950Z,11.04
2018-03-07T02:32:03.110Z,11.11
2018-03-07T02:32:29.242Z,11
2018-03-07T02:32:55.386Z,11.08
2018-03-07T02:33:21.557Z,11.05
2018-03-07T02:33:47.689Z,11.05
2018-03-07T02:34:13.825Z,11.08
2018-03-07T02:34:39.981Z,11.07
2018-03-07T02:35:06.121Z,11.1
2018-03-07T02:35:32.282Z,11.08
2018-03-07T02:35:58.419Z,11.04
2018-03-07T02:36:24.576Z,11.07
2018-03-07T02:36:50.727Z,11.1
2018-03-07T02:37:16.866Z,11.08
2018-03-07T02:37:43.001Z,11.1
2018-03-07T02:38:09.128Z,11.02
2018-03-07T02:38:35.283Z,11.11
2018-03-07T02:39:01.423Z,11.11
2018-03-07T02:39:27.562Z,11.18
2018-03-07T02:39:53.691Z,11.22
2018-03-07T02:40:19.833Z,11.25
2018-03-07T02:40:45.965Z,11.15
2018-03-07T02:41:12.121Z,11.15
2018-03-07T02:41:38.253Z,11.17
2018-03-07T02:42:04.409Z,11.14
2018-03-07T02:42:30.568Z,11.14
2018-03-07T02:42:56.699Z,11.14
2018-03-07T02:43:22.834Z,11.15
2018-03-07T02:43:48.967Z,11.17
2018-03-07T02:44:15.108Z,11.23
2018-03-07T02:44:41.247Z,11.23
2018-03-07T02:45:07.406Z,11.25
2018-03-07T02:45:33.540Z,11.19
2018-03-07T02:45:59.671Z,11.25
2018-03-07T02:46:25.810Z,11.3
2018-03-07T02:46:51.945Z,11.27
2018-03-07T02:47:18.081Z,11.3
2018-03-07T02:47:44.208Z,11.27
2018-03-07T02:48:10.344Z,11.27
2018-03-07T02:48:36.483Z,11.26
2018-03-07T02:49:02.622Z,11.25
2018-03-07T02:49:28.752Z,11.22
2018-03-07T02:49:54.887Z,11.25
2018-03-07T02:50:21.042Z,11.27
2018-03-07T02:50:47.183Z,11.29
2018-03-07T02:51:13.314Z,11.26
2018-03-07T02:51:39.443Z,11.26
2018-03-07T02:52:05.591Z,11.29
2018-03-07T02:52:31.715Z,11.25
2018-03-07T02:52:57.844Z,11.23
2018-03-07T02:53:24.006Z,11.27
2018-03-07T02:53:50.140Z,11.23
2018-03-07T02:54:16.272Z,11.23
2018-03-07T02:54:42.429Z,11.18
2018-03-07T02:55:08.568Z,11.26
2018-03-07T02:55:34.696Z,11.26
2018-03-07T02:56:00.831Z,11.23
2018-03-07T02:56:26.995Z,11.29
2018-03-07T02:56:53.122Z,11.17
2018-03-07T02:57:19.261Z,11.27
2018-03-07T02:57:45.393Z,11.25
2018-03-07T02:58:11.532Z,11.26
2018-03-07T02:58:37.666Z,11.26
2018-03-07T02:59:03.804Z,11.29
2018-03-07T02:59:29.941Z,11.26
2018-03-07T02:59:56.078Z,11.29
2018-03-07T03:00:22.222Z,11.27
2018-03-07T03:00:48.368Z,11.18
2018-03-07T03:01:14.502Z,11.19
2018-03-07T03:01:40.638Z,11.23
2018-03-07T03:02:06.773Z,11.18
2018-03-07T03:02:32.904Z,11.22
2018-03-07T03:02:59.039Z,11.15
2018-03-07T03:03:25.172Z,11.22
2018-03-07T03:03:51.321Z,11.19
2018-03-07T03:04:17.457Z,11.18
2018-03-07T03:04:43.637Z,11.17
2018-03-07T03:05:09.765Z,11.18
2018-03-07T03:05:35.903Z,11.14
2018-03-07T03:06:02.033Z,11.15
2018-03-07T03:06:28.165Z,11.18
2018-03-07T03:06:54.305Z,11.14
2018-03-07T03:07:20.463Z,11.17
2018-03-07T03:07:46.625Z,11.12
2018-03-07T03:08:12.765Z,11.14
2018-03-07T03:08:38.893Z,11.15
2018-03-07T03:09:05.034Z,11.14
2018-03-07T03:09:31.208Z,11.17
2018-03-07T03:09:57.344Z,11.1
2018-03-07T03:10:23.507Z,11.12
2018-03-07T03:10:49.643Z,11.08
2018-03-07T03:11:15.773Z,11.08
2018-03-07T03:11:41.905Z,11.04
2018-03-07T03:12:08.043Z,10.97
2018-03-07T03:12:34.173Z,11.07
2018-03-07T03:13:00.317Z,11.04
2018-03-07T03:13:26.449Z,11.07
2018-03-07T03:13:52.578Z,11.08
2018-03-07T03:14:18.734Z,11.08
2018-03-07T03:14:44.875Z,11.12
2018-03-07T03:15:11.006Z,11.05
2018-03-07T03:15:37.142Z,11.08
2018-03-07T03:16:03.269Z,11
2018-03-07T03:16:29.408Z,11.04
2018-03-07T03:16:55.539Z,10.99
2018-03-07T03:17:21.678Z,10.99
2018-03-07T03:17:47.810Z,11
2018-03-07T03:18:13.964Z,11.02
2018-03-07T03:18:40.101Z,11
2018-03-07T03:19:06.234Z,11.02
2018-03-07T03:19:32.375Z,10.97
2018-03-07T03:19:58.505Z,10.99
2018-03-07T03:20:24.645Z,10.93
2018-03-07T03:20:50.777Z,10.96
2018-03-07T03:21:16.916Z,10.99
2018-03-07T03:21:43.044Z,11
2018-03-07T03:22:09.174Z,10.97
2018-03-07T03:22:35.309Z,10.99
2018-03-07T03:23:01.439Z,11
2018-03-07T03:23:27.580Z,10.99
2018-03-07T03:23:53.716Z,10.97
2018-03-07T03:24:19.854Z,10.99
2018-03-07T03:24:45.993Z,11.02
2018-03-07T03:25:12.145Z,10.93
2018-03-07T03:25:38.285Z,11
2018-03-07T03:26:04.435Z,10.92
2018-03-07T03:26:30.576Z,10.94
2018-03-07T03:26:56.732Z,10.9
2018-03-07T03:27:22.870Z,10.82
2018-03-07T03:27:48.999Z,10.93
2018-03-07T03:28:15.159Z,10.86
2018-03-07T03:28:41.295Z,10.9
2018-03-07T03:29:07.424Z,10.81
2018-03-07T03:29:33.591Z,10.84
2018-03-07T03:29:59.799Z,10.82
2018-03-07T03:30:25.944Z,10.81
2018-03-07T03:30:52.091Z,10.9
2018-03-07T03:31:18.213Z,10.79
2018-03-07T03:31:44.347Z,10.84
2018-03-07T03:32:10.501Z,10.84
2018-03-07T03:32:36.632Z,10.74
2018-03-07T03:33:02.770Z,10.84
2018-03-07T03:33:28.901Z,10.79
2018-03-07T03:33:55.041Z,10.76
2018-03-07T03:34:21.178Z,10.74
2018-03-07T03:34:47.329Z,10.75
2018-03-07T03:35:13.461Z,10.71
2018-03-07T03:35:39.600Z,10.71
2018-03-07T03:36:05.734Z,10.76
2018-03-07T03:36:31.890Z,10.72
2018-03-07T03:36:58.030Z,10.74
2018-03-07T03:37:24.159Z,10.67
2018-03-07T03:37:50.298Z,10.64
2018-03-07T03:38:16.428Z,10.67
2018-03-07T03:38:42.593Z,10.68
2018-03-07T03:39:08.722Z,10.67
2018-03-07T03:39:34.861Z,10.71
2018-03-07T03:40:01.035Z,10.64
2018-03-07T03:40:27.123Z,10.69
2018-03-07T03:40:53.261Z,10.72
2018-03-07T03:41:19.394Z,10.63
2018-03-07T03:41:45.553Z,10.69
2018-03-07T03:42:11.711Z,10.71
2018-03-07T03:42:37.845Z,10.69
2018-03-07T03:43:04.010Z,10.69
2018-03-07T03:43:30.166Z,10.64
2018-03-07T03:43:56.323Z,10.69
2018-03-07T03:44:22.453Z,10.63
2018-03-07T03:44:48.584Z,10.53
2018-03-07T03:45:14.724Z,10.61
2018-03-07T03:45:40.898Z,10.68
2018-03-07T03:46:07.014Z,10.69
2018-03-07T03:46:33.175Z,10.67
2018-03-07T03:46:59.305Z,10.69
2018-03-07T03:47:25.435Z,10.67
2018-03-07T03:47:51.577Z,10.59
2018-03-07T03:48:17.712Z,10.57
2018-03-07T03:48:43.842Z,10.61
2018-03-07T03:49:09.994Z,10.49
2018-03-07T03:49:36.126Z,10.48
2018-03-07T03:50:02.252Z,10.4
2018-03-07T03:50:28.383Z,10.42
2018-03-07T03:50:54.548Z,10.41
2018-03-07T03:51:20.679Z,10.37
2018-03-07T03:51:46.834Z,10.41
2018-03-07T03:52:12.976Z,10.42
2018-03-07T03:52:39.128Z,10.46
2018-03-07T03:53:05.263Z,10.41
2018-03-07T03:53:31.396Z,10.48
2018-03-07T03:53:57.561Z,10.42
2018-03-07T03:54:23.690Z,10.4
2018-03-07T03:54:49.843Z,10.44
2018-03-07T03:55:15.978Z,10.34
2018-03-07T03:55:42.104Z,10.41
2018-03-07T03:56:08.236Z,10.48
2018-03-07T03:56:34.374Z,10.46
2018-03-07T03:57:00.514Z,10.41
2018-03-07T03:57:26.647Z,10.46
2018-03-07T03:57:52.784Z,10.42
2018-03-07T03:58:18.921Z,10.38
2018-03-07T03:58:45.050Z,10.46
2018-03-07T03:59:11.189Z,10.37
2018-03-07T03:59:37.321Z,10.44
2018-03-07T04:00:03.457Z,10.38
2018-03-07T04:00:29.587Z,10.44
2018-03-07T04:00:55.722Z,10.42
2018-03-07T04:01:21.852Z,10.4
2018-03-07T04:01:48.028Z,10.42
2018-03-07T04:02:14.150Z,10.38
2018-03-07T04:02:40.303Z,10.41
2018-03-07T04:03:06.464Z,10.41
2018-03-07T04:03:32.591Z,10.41
2018-03-07T04:03:58.732Z,10.44
2018-03-07T04:04:24.865Z,10.44
2018-03-07T04:04:50.997Z,10.44
2018-03-07T04:05:17.138Z,10.42
2018-03-07T04:05:43.269Z,10.37
2018-03-07T04:06:09.400Z,10.41
2018-03-07T04:06:35.536Z,10.42
2018-03-07T04:07:01.666Z,10.44
2018-03-07T04:07:27.798Z,10.4
2018-03-07T04:07:53.934Z,10.37
2018-03-07T04:08:20.066Z,10.38
2018-03-07T04:08:46.204Z,10.4
2018-03-07T04:09:12.336Z,10.42
2018-03-07T04:09:38.468Z,10.44
2018-03-07T04:10:04.608Z,10.44
2018-03-07T04:10:30.762Z,10.46
2018-03-07T04:10:56.895Z,10.41
2018-03-07T04:11:23.031Z,10.42
2018-03-07T04:11:49.171Z,10.53
2018-03-07T04:12:15.305Z,10.4
2018-03-07T04:12:41.432Z,10.4
2018-03-07T04:13:07.571Z,10.41
2018-03-07T04:13:33.702Z,10.4
2018-03-07T04:13:59.863Z,10.51
2018-03-07T04:14:25.998Z,10.56
2018-03-07T04:14:52.124Z,10.53
2018-03-07T04:15:18.255Z,10.46
2018-03-07T04:15:44.395Z,10.49
2018-03-07T04:16:10.528Z,10.53
2018-03-07T04:16:36.670Z,10.54
2018-03-07T04:17:02.807Z,10.56
2018-03-07T04:17:28.939Z,10.46
2018-03-07T04:17:55.075Z,10.46
2018-03-07T04:18:21.213Z,10.49
2018-03-07T04:18:47.341Z,10.49
2018-03-07T04:19:13.497Z,10.51
2018-03-07T04:19:39.634Z,10.51
2018-03-07T04:20:05.771Z,10.48
2018-03-07T04:20:31.900Z,10.54
2018-03-07T04:20:58.060Z,10.38
2018-03-07T04:21:24.225Z,10.53
2018-03-07T04:21:50.363Z,10.54
2018-03-07T04:22:16.496Z,10.42
2018-03-07T04:22:42.658Z,10.46
2018-03-07T04:23:08.797Z,10.4
2018-03-07T04:23:34.927Z,10.44
2018-03-07T04:24:01.064Z,10.56
2018-03-07T04:24:27.195Z,10.49
2018-03-07T04:24:53.327Z,10.46
2018-03-07T04:25:19.469Z,10.48
2018-03-07T04:25:45.625Z,10.57
2018-03-07T04:26:11.755Z,10.41
2018-03-07T04:26:37.885Z,10.49
2018-03-07T04:27:04.023Z,10.44
2018-03-07T04:27:30.155Z,10.41
2018-03-07T04:27:56.293Z,10.42
2018-03-07T04:28:22.427Z,10.49
2018-03-07T04:28:48.560Z,10.42
2018-03-07T04:29:14.694Z,10.41
2018-03-07T04:29:40.822Z,10.41
2018-03-07T04:30:06.960Z,10.42
2018-03-07T04:30:33.112Z,10.4
2018-03-07T04:30:59.245Z,10.37
2018-03-07T04:31:25.384Z,10.42
2018-03-07T04:31:51.520Z,10.41
2018-03-07T04:32:17.651Z,10.42
2018-03-07T04:32:43.786Z,10.44
2018-03-07T04:33:09.917Z,10.41
2018-03-07T04:33:36.055Z,10.38
2018-03-07T04:34:02.212Z,10.42
2018-03-07T04:34:28.349Z,10.41
2018-03-07T04:34:54.476Z,10.4
2018-03-07T04:35:20.610Z,10.44
2018-03-07T04:35:46.747Z,10.4
2018-03-07T04:36:12.882Z,10.41
2018-03-07T04:36:39.018Z,10.41
2018-03-07T04:37:05.155Z,10.44
2018-03-07T04:37:31.286Z,10.41
2018-03-07T04:37:57.419Z,10.4
2018-03-07T04:38:23.558Z,10.44
2018-03-07T04:38:49.691Z,10.41
2018-03-07T04:39:15.832Z,10.46
2018-03-07T04:39:41.959Z,10.41
2018-03-07T04:40:08.097Z,10.48
2018-03-07T04:40:34.231Z,10.37
2018-03-07T04:41:00.358Z,10.42
2018-03-07T04:41:26.521Z,10.41
2018-03-07T04:41:52.655Z,10.33
2018-03-07T04:42:18.791Z,10.38
2018-03-07T04:42:44.925Z,10.44
2018-03-07T04:43:11.062Z,10.35
2018-03-07T04:43:37.195Z,10.35
2018-03-07T04:44:03.329Z,10.3
2018-03-07T04:44:29.455Z,10.34
2018-03-07T04:44:55.592Z,10.28
2018-03-07T04:45:21.730Z,10.35
2018-03-07T04:45:47.860Z,10.28
2018-03-07T04:46:13.997Z,10.35
2018-03-07T04:46:40.134Z,10.28
2018-03-07T04:47:06.261Z,10.26
2018-03-07T04:47:32.408Z,10.28
2018-03-07T04:47:58.528Z,10.26
2018-03-07T04:48:24.670Z,10.28
2018-03-07T04:48:50.799Z,10.22
2018-03-07T04:49:16.932Z,10.25
2018-03-07T04:49:43.064Z,10.34
2018-03-07T04:50:09.195Z,10.28
2018-03-07T04:50:35.342Z,10.31
2018-03-07T04:51:01.465Z,10.33
2018-03-07T04:51:27.607Z,10.31
2018-03-07T04:51:53.741Z,10.25
2018-03-07T04:52:19.872Z,10.28
2018-03-07T04:52:46.007Z,10.25
2018-03-07T04:53:12.137Z,10.22
2018-03-07T04:53:38.273Z,10.2
2018-03-07T04:54:04.406Z,10.13
2018-03-07T04:54:30.543Z,10.25
2018-03-07T04:54:56.678Z,10.17
2018-03-07T04:55:22.806Z,10.15
2018-03-07T04:55:48.943Z,10.2
2018-03-07T04:56:15.096Z,10.19
2018-03-07T04:56:41.236Z,10.22
2018-03-07T04:57:07.370Z,10.17
2018-03-07T04:57:33.506Z,10.16
2018-03-07T04:57:59.636Z,10.17
2018-03-07T04:58:25.795Z,10.17
2018-03-07T04:58:51.946Z,10.17
2018-03-07T04:59:18.105Z,10.28
2018-03-07T04:59:44.241Z,10.28
2018-03-07T05:00:10.370Z,10.28
2018-03-07T05:00:36.506Z,10.26
2018-03-07T05:01:02.662Z,10.28
2018-03-07T05:01:28.798Z,10.33
2018-03-07T05:01:54.963Z,10.31
2018-03-07T05:02:21.113Z,10.3
2018-03-07T05:02:47.345Z,10.25
2018-03-07T05:03:13.386Z,10.22
2018-03-07T05:03:39.524Z,10.26
2018-03-07T05:04:05.655Z,10.26
2018-03-07T05:04:31.787Z,10.31
2018-03-07T05:04:57.933Z,10.2
2018-03-07T05:05:24.062Z,10.22
2018-03-07T05:05:50.195Z,10.15
2018-03-07T05:06:16.330Z,10.13
2018-03-07T05:06:42.460Z,10.17
2018-03-07T05:07:08.625Z,10.19
2018-03-07T05:07:34.758Z,10.13
2018-03-07T05:08:00.896Z,10.13
2018-03-07T05:08:27.024Z,10.16
2018-03-07T05:08:53.167Z,10.13
2018-03-07T05:09:19.304Z,10.16
2018-03-07T05:09:45.435Z,10.19
2018-03-07T05:10:11.595Z,10.19
2018-03-07T05:10:37.728Z,10.19
2018-03-07T05:11:03.859Z,10.17
2018-03-07T05:11:30.003Z,10.12
2018-03-07T05:11:56.172Z,10.16
2018-03-07T05:12:22.335Z,10.13
2018-03-07T05:12:48.493Z,10.1
2018-03-07T05:13:14.630Z,10.15
2018-03-07T05:13:40.783Z,10.15
2018-03-07T05:14:06.918Z,10.12
2018-03-07T05:14:33.057Z,10.05
2018-03-07T05:14:59.213Z,10.12
2018-03-07T05:15:25.349Z,10.07
2018-03-07T05:15:51.487Z,10.15
2018-03-07T05:16:17.618Z,10.05
2018-03-07T05:16:43.755Z,10.1
2018-03-07T05:17:09.888Z,10.07
2018-03-07T05:17:36.025Z,10.1
2018-03-07T05:18:02.156Z,10.16
2018-03-07T05:18:28.292Z,10.1
2018-03-07T05:18:54.430Z,10.07
2018-03-07T05:19:20.560Z,10.04
2018-03-07T05:19:46.696Z,9.99
2018-03-07T05:20:12.835Z,9.91
2018-03-07T05:20:38.961Z,9.92
2018-03-07T05:21:05.096Z,10.04
2018-03-07T05:21:31.245Z,9.99
2018-03-07T05:21:57.383Z,9.95
2018-03-07T05:22:23.514Z,9.94
2018-03-07T05:22:49.650Z,9.83
2018-03-07T05:23:15.788Z,9.87
2018-03-07T05:23:41.930Z,9.97
2018-03-07T05:24:08.055Z,9.99
2018-03-07T05:24:34.190Z,9.95
2018-03-07T05:25:00.325Z,10.02
2018-03-07T05:25:26.458Z,9.95
2018-03-07T05:25:52.584Z,9.92
2018-03-07T05:26:18.723Z,9.99
2018-03-07T05:26:44.864Z,9.95
2018-03-07T05:27:10.993Z,9.91
2018-03-07T05:27:37.128Z,9.95
2018-03-07T05:28:03.260Z,10.02
2018-03-07T05:28:29.395Z,9.98
2018-03-07T05:28:55.526Z,9.94
2018-03-07T05:29:21.667Z,9.92
2018-03-07T05:29:47.804Z,10.01
2018-03-07T05:30:13.933Z,9.92
2018-03-07T05:30:40.072Z,9.91
2018-03-07T05:31:06.204Z,9.95
2018-03-07T05:31:32.342Z,9.92
2018-03-07T05:31:58.474Z,9.89
2018-03-07T05:32:24.608Z,9.91
2018-03-07T05:32:50.742Z,9.84
2018-03-07T05:33:16.878Z,9.91
2018-03-07T05:33:43.009Z,9.82
2018-03-07T05:34:09.144Z,9.83
2018-03-07T05:34:35.283Z,9.92
2018-03-07T05:35:01.416Z,9.89
2018-03-07T05:35:27.569Z,9.91
2018-03-07T05:35:53.708Z,9.86
2018-03-07T05:36:19.844Z,9.83
2018-03-07T05:36:45.972Z,9.94
2018-03-07T05:37:12.108Z,9.86
2018-03-07T05:37:38.264Z,9.91
2018-03-07T05:38:04.396Z,9.89
2018-03-07T05:38:30.531Z,9.92
2018-03-07T05:38:56.661Z,9.89